createdAt,value
2022-10-06T00:01:16.637Z,6.87
2022-10-06T00:03:45.721Z,8.37
2022-10-06T00:06:15.175Z,7.27
2022-10-06T00:08:44.958Z,7.67
2022-10-06T00:11:14.132Z,7.43
2022-10-06T00:13:42.521Z,9.77
2022-10-06T00:16:14.520Z,7.50
2022-10-06T00:18:42.679Z,8.83
2022-10-06T00:21:11.087Z,5.87
2022-10-06T00:23:39.055Z,6.77
2022-10-06T00:26:11.648Z,12.97
2022-10-06T00:28:40.129Z,8.93
2022-10-06T00:31:08.236Z,5.53
2022-10-06T00:33:38.473Z,7.30
2022-10-06T00:36:08.150Z,8.70
2022-10-06T00:38:36.594Z,5.67
2022-10-06T00:41:04.653Z,7.13
2022-10-06T00:43:49.770Z,4.90
2022-10-06T00:46:23.735Z,5.97
2022-10-06T00:48:57.526Z,6.70
2022-10-06T00:51:25.826Z,5.40
2022-10-06T00:53:54.608Z,8.23
2022-10-06T00:56:22.818Z,12.00
2022-10-06T00:58:51.239Z,7.20
2022-10-06T01:01:19.241Z,8.20
2022-10-06T01:03:51.869Z,7.90
2022-10-06T01:06:21.312Z,4.83
2022-10-06T01:08:50.098Z,9.20
2022-10-06T01:11:18.106Z,6.30
2022-10-06T01:13:47.594Z,9.10
2022-10-06T01:16:21.200Z,7.93
2022-10-06T01:18:50.034Z,12.83
2022-10-06T01:21:28.536Z,6.90
2022-10-06T01:23:58.518Z,7.23
2022-10-06T01:26:28.430Z,8.03
2022-10-06T01:28:56.890Z,6.73
2022-10-06T01:31:25.996Z,7.13
2022-10-06T01:33:54.679Z,10.67
2022-10-06T01:36:23.036Z,7.37
2022-10-06T01:38:51.008Z,7.47
2022-10-06T01:41:21.805Z,6.43
2022-10-06T01:43:49.961Z,5.93
2022-10-06T01:46:18.099Z,7.60
2022-10-06T01:48:46.073Z,5.00
2022-10-06T01:51:16.130Z,6.77
2022-10-06T01:53:44.396Z,7.43
2022-10-06T01:56:13.075Z,7.87
2022-10-06T01:58:42.472Z,6.60
2022-10-06T02:01:11.240Z,6.20
2022-10-06T02:03:40.604Z,5.20
2022-10-06T02:06:09.523Z,7.40
2022-10-06T02:08:37.799Z,9.70
2022-10-06T02:11:09.189Z,6.17
2022-10-06T02:13:37.884Z,6.20
2022-10-06T02:16:08.311Z,5.10
2022-10-06T02:18:37.159Z,8.63
2022-10-06T02:21:05.434Z,6.73
2022-10-06T02:23:34.300Z,7.30
2022-10-06T02:26:04.981Z,8.03
2022-10-06T02:28:33.654Z,6.57
2022-10-06T02:31:03.453Z,5.83
2022-10-06T02:33:33.100Z,6.37
2022-10-06T02:36:01.339Z,6.07
2022-10-06T02:38:30.533Z,9.20
2022-10-06T02:40:59.697Z,8.33
2022-10-06T02:43:28.994Z,7.17
2022-10-06T02:45:58.050Z,5.17
2022-10-06T02:48:27.002Z,4.90
2022-10-06T02:50:58.741Z,7.27
2022-10-06T02:53:27.301Z,5.50
2022-10-06T02:56:00.735Z,7.80
2022-10-06T02:58:31.103Z,6.23
2022-10-06T03:01:03.496Z,5.57
2022-10-06T03:03:31.992Z,5.30
2022-10-06T03:06:06.290Z,6.63
2022-10-06T03:08:34.884Z,7.30
2022-10-06T03:11:07.210Z,5.83
2022-10-06T03:13:35.351Z,4.10
2022-10-06T03:16:03.439Z,6.63
2022-10-06T03:18:31.985Z,8.43
2022-10-06T03:21:02.167Z,5.90
2022-10-06T03:23:31.529Z,9.53
2022-10-06T03:25:59.664Z,6.40
2022-10-06T03:28:28.751Z,6.60
2022-10-06T03:31:03.887Z,5.20
2022-10-06T03:33:32.240Z,5.40
2022-10-06T03:36:05.639Z,7.97
2022-10-06T03:38:36.644Z,8.83
2022-10-06T03:41:06.918Z,4.27
2022-10-06T03:43:35.581Z,6.63
2022-10-06T03:46:04.595Z,5.33
2022-10-06T03:48:35.141Z,6.90
2022-10-06T03:51:05.703Z,7.37
2022-10-06T03:53:36.305Z,6.47
2022-10-06T03:56:07.502Z,6.17
2022-10-06T03:58:38.199Z,7.30
2022-10-06T04:01:08.270Z,10.17
2022-10-06T04:03:36.609Z,5.90
2022-10-06T04:06:07.211Z,6.63
2022-10-06T04:08:36.948Z,6.67
2022-10-06T04:11:08.778Z,8.60
2022-10-06T04:13:37.012Z,7.67
2022-10-06T04:16:16.720Z,5.83
2022-10-06T04:18:46.134Z,7.17
2022-10-06T04:21:14.674Z,5.70
2022-10-06T04:23:44.142Z,7.53
2022-10-06T04:26:14.235Z,5.17
2022-10-06T04:28:44.365Z,7.50
2022-10-06T04:31:17.951Z,5.63
2022-10-06T04:33:47.392Z,7.93
2022-10-06T04:36:17.947Z,6.50
2022-10-06T04:38:47.322Z,7.07
2022-10-06T04:41:16.803Z,10.53
2022-10-06T04:43:46.444Z,7.53
2022-10-06T04:46:40.988Z,8.93
2022-10-06T04:49:03.775Z,10.80
2022-10-06T04:51:31.921Z,10.00
2022-10-06T04:54:02.677Z,7.53
2022-10-06T04:56:32.591Z,9.57
2022-10-06T04:59:00.759Z,10.83
2022-10-06T05:01:30.930Z,8.73
2022-10-06T05:04:01.032Z,5.00
2022-10-06T05:06:30.703Z,10.00
2022-10-06T05:09:00.811Z,7.43
2022-10-06T05:11:31.933Z,9.47
2022-10-06T05:14:00.469Z,7.27
2022-10-06T05:16:30.655Z,7.27
2022-10-06T05:18:58.833Z,10.37
2022-10-06T05:21:28.463Z,8.30
2022-10-06T05:23:56.434Z,7.20
2022-10-06T05:26:26.056Z,5.00
2022-10-06T05:28:56.213Z,8.97
2022-10-06T05:31:27.282Z,8.40
2022-10-06T05:33:56.873Z,6.30
2022-10-06T05:36:28.200Z,6.23
2022-10-06T05:38:56.446Z,7.37
2022-10-06T05:41:25.827Z,5.83
2022-10-06T05:43:55.969Z,7.87
2022-10-06T05:46:28.189Z,7.20
2022-10-06T05:48:58.819Z,12.10
2022-10-06T05:51:31.019Z,6.67
2022-10-06T05:53:59.631Z,6.00
2022-10-06T05:56:29.537Z,8.73
2022-10-06T05:59:00.386Z,8.70
2022-10-06T06:01:30.359Z,7.90
2022-10-06T06:04:03.742Z,11.07
2022-10-06T06:06:33.197Z,13.77
2022-10-06T06:09:03.717Z,10.30
2022-10-06T06:11:32.781Z,7.47
2022-10-06T06:14:03.590Z,12.40
2022-10-06T06:16:31.361Z,12.53
2022-10-06T06:19:00.050Z,13.67
2022-10-06T06:21:29.751Z,10.23
2022-10-06T06:23:58.152Z,16.23
2022-10-06T06:26:28.039Z,8.37
2022-10-06T06:29:02.885Z,13.50
2022-10-06T06:31:35.037Z,9.10
2022-10-06T06:34:06.811Z,10.27
2022-10-06T06:36:41.005Z,8.77
2022-10-06T06:39:11.398Z,10.47
2022-10-06T06:41:41.052Z,8.37
2022-10-06T06:44:12.550Z,7.47
2022-10-06T06:46:44.896Z,6.33
2022-10-06T06:49:13.560Z,7.57
2022-10-06T06:51:43.353Z,7.60
2022-10-06T06:54:13.003Z,9.07
2022-10-06T06:56:41.409Z,8.20
2022-10-06T06:59:11.963Z,7.30
2022-10-06T07:01:45.880Z,12.00
2022-10-06T07:04:15.924Z,7.90
2022-10-06T07:06:57.280Z,12.50
2022-10-06T07:09:26.752Z,6.37
2022-10-06T07:11:55.545Z,7.77
2022-10-06T07:14:24.543Z,12.90
2022-10-06T07:17:11.922Z,7.57
2022-10-06T07:19:57.847Z,17.30
2022-10-06T07:22:47.434Z,12.50
2022-10-06T07:25:25.903Z,8.60
2022-10-06T07:27:55.302Z,6.73
2022-10-06T07:30:28.383Z,5.17
2022-10-06T07:32:57.930Z,7.33
2022-10-06T07:35:26.713Z,8.50
2022-10-06T07:37:54.992Z,8.77
2022-10-06T07:40:23.114Z,4.63
2022-10-06T07:42:52.220Z,11.50
2022-10-06T07:45:42.755Z,5.03
2022-10-06T07:48:15.034Z,4.57
2022-10-06T07:50:44.097Z,6.33
2022-10-06T07:53:12.363Z,11.17
2022-10-06T07:55:41.901Z,6.10
2022-10-06T07:58:14.363Z,6.93
2022-10-06T08:00:43.081Z,3.57
2022-10-06T08:03:18.210Z,5.07
2022-10-06T08:05:46.323Z,4.07
2022-10-06T08:08:14.890Z,3.77
2022-10-06T08:10:43.454Z,7.60
2022-10-06T08:13:11.474Z,9.77
2022-10-06T08:15:39.646Z,5.30
2022-10-06T08:18:21.391Z,7.53
2022-10-06T08:20:56.457Z,10.93
2022-10-06T08:23:24.484Z,7.28
2022-10-06T08:25:54.796Z,5.50
2022-10-06T08:28:24.606Z,7.20
2022-10-06T08:30:53.182Z,10.18
2022-10-06T08:33:21.730Z,9.20
2022-10-06T08:35:49.948Z,5.43
2022-10-06T08:38:20.008Z,6.30
2022-10-06T08:40:48.940Z,8.00
2022-10-06T08:43:25.015Z,4.22
2022-10-06T08:46:00.543Z,5.82
2022-10-06T08:48:38.704Z,4.45
2022-10-06T08:51:18.803Z,3.65
2022-10-06T08:54:00.116Z,7.00
2022-10-06T08:56:33.021Z,4.30
2022-10-06T08:59:04.970Z,3.95
2022-10-06T09:01:42.780Z,5.78
2022-10-06T09:04:15.176Z,3.70
2022-10-06T09:06:52.200Z,7.70
2022-10-06T09:09:44.826Z,6.22
2022-10-06T09:12:20.823Z,7.72
2022-10-06T09:14:52.674Z,8.05
2022-10-06T09:17:27.326Z,3.78
2022-10-06T09:19:59.633Z,5.47
2022-10-06T09:22:31.865Z,5.10
2022-10-06T09:25:15.865Z,5.15
2022-10-06T09:27:48.023Z,9.55
2022-10-06T09:30:16.443Z,9.93
2022-10-06T09:32:48.755Z,8.77
2022-10-06T09:35:20.767Z,6.25
2022-10-06T09:37:57.883Z,5.95
2022-10-06T09:40:37.932Z,18.20
2022-10-06T09:43:18.301Z,5.35
2022-10-06T09:45:46.549Z,3.22
2022-10-06T09:48:24.814Z,3.75
2022-10-06T09:51:09.833Z,3.65
2022-10-06T09:53:39.645Z,4.07
2022-10-06T09:56:18.984Z,7.53
2022-10-06T09:58:58.773Z,7.38
2022-10-06T10:01:29.529Z,10.98
2022-10-06T10:04:21.075Z,6.63
2022-10-06T10:06:49.288Z,3.13
2022-10-06T10:09:27.083Z,4.13
2022-10-06T10:12:28.168Z,3.70
2022-10-06T10:14:59.315Z,3.50
2022-10-06T10:17:41.632Z,6.38
2022-10-06T10:20:28.309Z,5.20
2022-10-06T10:22:59.857Z,3.63
2022-10-06T10:25:46.636Z,3.65
2022-10-06T10:28:30.475Z,3.30
2022-10-06T10:31:06.408Z,5.00
2022-10-06T10:33:49.727Z,3.13
2022-10-06T10:36:41.397Z,3.40
2022-10-06T10:39:19.608Z,4.97
2022-10-06T10:41:52.046Z,3.65
2022-10-06T10:44:31.664Z,3.50
2022-10-06T10:47:13.033Z,3.38
2022-10-06T10:50:02.597Z,7.28
2022-10-06T10:52:38.198Z,1.60
2022-10-06T10:55:19.800Z,2.67
2022-10-06T10:57:50.279Z,1.98
2022-10-06T11:00:23.154Z,3.05
2022-10-06T11:02:55.200Z,5.40
2022-10-06T11:05:45.703Z,2.47
2022-10-06T11:08:23.136Z,2.90
2022-10-06T11:10:55.238Z,4.45
2022-10-06T11:13:30.139Z,2.95
2022-10-06T11:16:14.651Z,4.97
2022-10-06T11:18:56.229Z,4.18
2022-10-06T11:21:28.702Z,2.90
2022-10-06T11:24:03.925Z,1.73
2022-10-06T11:26:50.572Z,5.60
2022-10-06T11:29:30.240Z,3.83
2022-10-06T11:32:08.998Z,3.70
2022-10-06T11:34:37.390Z,3.85
2022-10-06T11:37:17.472Z,4.10
2022-10-06T11:39:53.945Z,5.85
2022-10-06T11:45:03.959Z,4.28
2022-10-06T11:47:44.426Z,4.30
2022-10-06T11:50:34.350Z,5.05
2022-10-06T11:53:02.563Z,4.57
2022-10-06T11:55:31.436Z,2.38
2022-10-06T12:01:02.159Z,3.28
2022-10-06T12:03:49.381Z,4.40
2022-10-06T12:06:59.404Z,3.05
2022-10-06T12:09:52.723Z,2.05
2022-10-06T12:13:06.277Z,4.38
2022-10-06T12:19:19.287Z,1.73
2022-10-06T12:22:02.059Z,4.43
2022-10-06T12:24:44.911Z,2.63
2022-10-06T12:27:43.281Z,10.63
2022-10-06T12:30:24.788Z,2.05
2022-10-06T12:32:58.293Z,3.45
2022-10-06T12:35:35.183Z,2.17
2022-10-06T12:38:06.268Z,2.88
2022-10-06T12:40:52.536Z,2.50
2022-10-06T12:43:36.200Z,8.90
2022-10-06T12:46:08.218Z,5.55
2022-10-06T12:48:42.025Z,3.33
2022-10-06T12:51:25.780Z,2.33
2022-10-06T12:54:04.385Z,7.60
2022-10-06T12:56:34.613Z,4.13
2022-10-06T12:59:21.398Z,5.10
2022-10-06T13:01:51.982Z,5.22
2022-10-06T13:04:39.379Z,7.10
2022-10-06T13:07:17.125Z,3.13
2022-10-06T13:09:45.677Z,2.83
2022-10-06T13:12:26.435Z,3.80
2022-10-06T13:15:15.713Z,1.25
2022-10-06T13:17:47.418Z,3.97
2022-10-06T13:20:27.154Z,3.65
2022-10-06T13:23:08.685Z,2.78
2022-10-06T13:25:45.837Z,4.22
2022-10-06T13:28:22.903Z,3.10
2022-10-06T13:30:53.332Z,4.30
2022-10-06T13:33:22.386Z,2.80
2022-10-06T13:35:54.122Z,2.60
2022-10-06T13:38:23.612Z,1.67
2022-10-06T13:41:05.935Z,3.33
2022-10-06T13:43:39.748Z,1.63
2022-10-06T13:46:10.951Z,2.10
2022-10-06T13:48:46.387Z,3.95
2022-10-06T13:51:19.984Z,2.75
2022-10-06T13:53:50.433Z,2.40
2022-10-06T13:56:34.817Z,5.60
2022-10-06T13:59:30.105Z,2.05
2022-10-06T14:01:59.750Z,5.43
2022-10-06T14:04:27.850Z,14.38
2022-10-06T14:06:59.973Z,8.15
2022-10-06T14:09:32.856Z,5.97
2022-10-06T14:12:06.894Z,3.35
2022-10-06T14:14:35.220Z,5.75
2022-10-06T14:17:03.870Z,5.05
2022-10-06T14:19:35.631Z,2.85
2022-10-06T14:22:05.683Z,1.55
2022-10-06T14:24:37.628Z,2.22
2022-10-06T14:27:07.373Z,10.75
2022-10-06T14:29:38.188Z,2.25
2022-10-06T14:32:16.387Z,1.83
2022-10-06T14:34:44.965Z,9.93
2022-10-06T14:37:15.303Z,4.68
2022-10-06T14:39:46.213Z,5.03
2022-10-06T14:42:15.641Z,3.42
2022-10-06T14:44:44.859Z,3.08
2022-10-06T14:47:12.901Z,4.10
2022-10-06T14:49:41.045Z,1.50
2022-10-06T14:52:10.687Z,2.67
2022-10-06T14:54:38.849Z,3.90
2022-10-06T14:57:09.290Z,2.63
2022-10-06T14:59:37.260Z,5.20
2022-10-06T15:02:05.692Z,8.43
2022-10-06T15:04:33.681Z,7.10
2022-10-06T15:07:18.980Z,7.47
2022-10-06T15:09:46.983Z,5.25
2022-10-06T15:12:16.347Z,7.15
2022-10-06T15:14:44.715Z,4.53
2022-10-06T15:17:12.772Z,7.70
2022-10-06T15:19:40.991Z,8.18
2022-10-06T15:22:10.353Z,10.35
2022-10-06T15:24:38.445Z,8.68
2022-10-06T15:27:25.270Z,7.10
2022-10-06T15:29:56.148Z,3.53
2022-10-06T15:32:24.164Z,7.38
2022-10-06T15:34:53.426Z,8.27
2022-10-06T15:37:21.537Z,11.10
2022-10-06T15:39:51.340Z,7.80
2022-10-06T15:42:24.082Z,9.18
2022-10-06T15:44:52.690Z,7.65
2022-10-06T15:47:22.167Z,8.23
2022-10-06T15:49:50.660Z,15.40
2022-10-06T15:52:19.025Z,8.65
2022-10-06T15:54:49.957Z,8.02
2022-10-06T15:57:21.283Z,7.55
2022-10-06T15:59:50.450Z,8.35
2022-10-06T16:02:20.429Z,8.30
2022-10-06T16:05:17.658Z,7.78
2022-10-06T16:07:45.668Z,6.28
2022-10-06T16:10:13.926Z,15.10
2022-10-06T16:12:42.033Z,25.00
2022-10-06T16:15:10.955Z,15.45
2022-10-06T16:17:39.202Z,10.57
2022-10-06T16:20:11.631Z,17.63
2022-10-06T16:22:40.019Z,8.80
2022-10-06T16:25:08.864Z,10.63
2022-10-06T16:27:36.833Z,14.85
2022-10-06T16:30:05.568Z,17.27
2022-10-06T16:32:33.663Z,10.93
2022-10-06T16:35:01.668Z,12.05
2022-10-06T16:37:31.058Z,10.85
2022-10-06T16:39:59.018Z,16.42
2022-10-06T16:42:27.259Z,15.40
2022-10-06T16:44:55.820Z,12.10
2022-10-06T16:47:23.894Z,14.52
2022-10-06T16:49:51.879Z,24.30
2022-10-06T16:52:19.943Z,26.27
2022-10-06T16:54:49.270Z,28.08
2022-10-06T16:57:17.541Z,33.97
2022-10-06T16:59:46.995Z,12.80
2022-10-06T17:02:15.287Z,19.23
2022-10-06T17:04:43.494Z,12.63
2022-10-06T17:07:11.636Z,15.25
2022-10-06T17:09:51.099Z,17.48
2022-10-06T17:12:29.560Z,20.05
2022-10-06T17:14:57.704Z,21.60
2022-10-06T17:17:25.680Z,20.23
2022-10-06T17:19:55.234Z,22.20
2022-10-06T17:22:23.212Z,27.90
2022-10-06T17:24:51.216Z,15.90
2022-10-06T17:27:19.420Z,21.25
2022-10-06T17:29:49.496Z,15.05
2022-10-06T17:32:18.175Z,14.57
2022-10-06T17:34:47.975Z,19.83
2022-10-06T17:37:17.608Z,30.00
2022-10-06T17:39:47.201Z,28.27
2022-10-06T17:42:15.291Z,25.52
2022-10-06T17:44:43.313Z,23.50
2022-10-06T17:47:12.826Z,19.60
2022-10-06T17:49:40.989Z,26.65
2022-10-06T17:52:08.975Z,21.65
2022-10-06T17:54:37.409Z,24.60
2022-10-06T17:57:05.658Z,17.73
2022-10-06T17:59:33.944Z,15.75
2022-10-06T18:02:07.302Z,19.10
2022-10-06T18:04:37.425Z,29.03
2022-10-06T18:07:06.278Z,23.17
2022-10-06T18:09:34.311Z,22.53
2022-10-06T18:12:02.712Z,16.13
2022-10-06T18:14:33.808Z,17.73
2022-10-06T18:17:04.338Z,15.13
2022-10-06T18:19:34.337Z,19.67
2022-10-06T18:22:10.238Z,14.63
2022-10-06T18:24:39.353Z,12.90
2022-10-06T18:27:08.299Z,13.83
2022-10-06T18:29:38.252Z,13.23
2022-10-06T18:33:06.393Z,12.57
2022-10-06T18:37:46.664Z,11.60
2022-10-06T18:40:15.612Z,8.53
2022-10-06T18:42:43.887Z,10.50
2022-10-06T18:45:33.192Z,11.33
2022-10-06T18:48:21.319Z,5.90
2022-10-06T18:51:02.828Z,7.30
2022-10-06T18:53:38.761Z,5.90
2022-10-06T18:56:07.502Z,9.00
2022-10-06T18:58:40.064Z,7.47
2022-10-06T19:01:10.276Z,14.43
2022-10-06T19:03:38.613Z,4.10
2022-10-06T19:06:07.113Z,4.33
2022-10-06T19:08:37.117Z,4.87
2022-10-06T19:11:31.838Z,4.50
2022-10-06T19:14:03.128Z,3.70
2022-10-06T19:16:31.464Z,5.43
2022-10-06T19:19:11.319Z,5.90
2022-10-06T19:21:40.915Z,4.07
2022-10-06T19:24:13.766Z,3.67
2022-10-06T19:26:45.943Z,8.13
2022-10-06T19:29:15.385Z,6.80
2022-10-06T19:31:48.093Z,5.67
2022-10-06T19:34:18.370Z,5.87
2022-10-06T19:36:50.070Z,25.07
2022-10-06T19:39:26.589Z,20.87
2022-10-06T19:42:15.230Z,31.30
2022-10-06T19:44:43.766Z,37.30
2022-10-06T19:47:14.898Z,44.30
2022-10-06T19:49:42.963Z,49.27
2022-10-06T19:52:13.665Z,51.07
2022-10-06T19:54:43.398Z,41.23
2022-10-06T19:57:12.341Z,38.90
2022-10-06T19:59:40.960Z,41.10
2022-10-06T20:02:10.912Z,42.40
2022-10-06T20:04:40.621Z,46.30
2022-10-06T20:07:10.769Z,41.07
2022-10-06T20:09:39.239Z,33.33
2022-10-06T20:12:08.939Z,41.33
2022-10-06T20:14:37.550Z,34.57
2022-10-06T20:17:06.038Z,36.30
2022-10-06T20:19:37.539Z,36.87
2022-10-06T20:22:07.303Z,40.93
2022-10-06T20:24:35.994Z,33.27
2022-10-06T20:27:04.307Z,43.73
2022-10-06T20:29:34.922Z,36.60
2022-10-06T20:32:05.662Z,36.60
2022-10-06T20:34:34.576Z,50.87
2022-10-06T20:37:04.701Z,32.20
2022-10-06T20:39:51.761Z,27.53
2022-10-06T20:42:21.278Z,25.10
2022-10-06T20:44:50.962Z,25.73
2022-10-06T20:47:19.067Z,23.63
2022-10-06T20:49:47.127Z,23.13
2022-10-06T20:52:15.208Z,23.10
2022-10-06T20:54:44.181Z,23.23
2022-10-06T20:57:13.655Z,26.93
2022-10-06T20:59:41.923Z,25.80
2022-10-06T21:02:12.706Z,22.20
2022-10-06T21:04:43.639Z,29.73
2022-10-06T21:07:12.004Z,30.50
2022-10-06T21:09:40.186Z,23.83
2022-10-06T21:12:08.599Z,21.27
2022-10-06T21:14:38.370Z,23.20
2022-10-06T21:17:06.751Z,23.07
2022-10-06T21:19:38.415Z,26.40
2022-10-06T21:22:06.954Z,23.57
2022-10-06T21:24:35.036Z,24.20
2022-10-06T21:27:03.309Z,24.90
2022-10-06T21:29:31.393Z,22.37
2022-10-06T21:31:59.870Z,26.57
2022-10-06T21:34:27.983Z,19.97
2022-10-06T21:36:58.253Z,24.17
2022-10-06T21:39:26.348Z,23.47
2022-10-06T21:41:54.794Z,25.57
2022-10-06T21:44:22.796Z,19.23
2022-10-06T21:46:51.964Z,22.07
2022-10-06T21:49:21.476Z,14.23
2022-10-06T21:51:51.078Z,19.60
2022-10-06T21:54:20.798Z,12.30
2022-10-06T21:56:49.135Z,13.33
2022-10-06T21:59:17.194Z,17.37
2022-10-06T22:01:46.701Z,19.93
2022-10-06T22:04:15.677Z,17.97
2022-10-06T22:06:44.814Z,19.40
2022-10-06T22:09:15.898Z,19.53
2022-10-06T22:11:45.263Z,19.10
2022-10-06T22:14:15.027Z,21.57
2022-10-06T22:16:43.187Z,19.57
2022-10-06T22:19:13.586Z,26.37
2022-10-06T22:21:43.494Z,25.77
2022-10-06T22:24:13.924Z,24.53
2022-10-06T22:26:43.801Z,21.40
2022-10-06T22:29:15.911Z,21.70
2022-10-06T22:31:46.726Z,19.20
2022-10-06T22:34:16.907Z,18.87
2022-10-06T22:36:44.859Z,17.77
2022-10-06T22:39:13.082Z,13.13
2022-10-06T22:41:41.032Z,12.53
2022-10-06T22:44:09.215Z,15.87
2022-10-06T22:46:39.196Z,23.80
2022-10-06T22:49:07.604Z,15.67
2022-10-06T22:51:36.097Z,19.53
2022-10-06T22:54:04.375Z,19.33
2022-10-06T22:56:34.316Z,12.43
2022-10-06T22:59:02.694Z,14.43
2022-10-06T23:01:31.501Z,13.57
2022-10-06T23:04:00.956Z,13.33
2022-10-06T23:06:31.271Z,12.87
2022-10-06T23:08:59.896Z,21.27
2022-10-06T23:11:28.541Z,15.10
2022-10-06T23:13:56.519Z,14.77
2022-10-06T23:16:24.633Z,16.40
2022-10-06T23:18:52.775Z,13.73
2022-10-06T23:21:27.444Z,13.43
2022-10-06T23:23:57.647Z,17.80
2022-10-06T23:26:25.990Z,17.07
2022-10-06T23:28:55.999Z,55.97
2022-10-06T23:31:24.753Z,57.60
2022-10-06T23:33:52.895Z,62.27
2022-10-06T23:36:22.245Z,59.33
2022-10-06T23:38:50.194Z,64.70
2022-10-06T23:41:18.361Z,71.33
2022-10-06T23:43:46.380Z,33.67
2022-10-06T23:46:14.929Z,27.83
2022-10-06T23:48:43.425Z,31.13
2022-10-06T23:51:13.571Z,22.60
2022-10-06T23:53:43.578Z,50.10
2022-10-06T23:56:12.030Z,62.13
2022-10-06T23:58:41.687Z,44.20
